Time;durP1;ratioP1;P1;durP2;ratioP2;P2;SDS_P1;SDS_P2;PMS_P1;PMS_P2;Temp;Humidity;BMP_temperature;BMP_pressure;BME280_temperature;BME280_humidity;BME280_pressure;Samples;Min_cycle;Max_cycle;Signal;HPM_P1;HPM_P2
2022/03/20 00:00:43;;;;;;;32.63;17.55;;;3.40;99.90;;;;;;5047160;28;20520;-72
2022/03/20 00:03:10;;;;;;;34.42;17.67;;;3.40;99.90;;;;;;5050612;28;20028;-72
2022/03/20 00:05:40;;;;;;;33.88;17.33;;;3.40;99.90;;;;;;5052197;28;20127;-72
2022/03/20 00:08:11;;;;;;;31.88;18.02;;;3.40;99.90;;;;;;5042195;28;20094;-72
2022/03/20 00:10:45;;;;;;;33.72;18.52;;;3.40;99.90;;;;;;5047802;28;20049;-72
2022/03/20 00:13:13;;;;;;;33.97;17.83;;;3.40;99.90;;;;;;5037815;28;20367;-72
2022/03/20 00:15:43;;;;;;;33.20;18.17;;;3.30;99.90;;;;;;5050838;28;20397;-73
2022/03/20 00:18:13;;;;;;;32.92;17.80;;;3.40;99.90;;;;;;5047024;28;20426;-73
2022/03/20 00:20:42;;;;;;;30.50;16.63;;;3.30;99.90;;;;;;5048768;28;20028;-73
2022/03/20 00:23:09;;;;;;;36.47;17.83;;;3.30;99.90;;;;;;5048570;28;20445;-72
2022/03/20 00:25:38;;;;;;;30.00;17.63;;;3.30;99.90;;;;;;5048764;28;20047;-73
2022/03/20 00:28:04;;;;;;;30.98;17.98;;;3.30;99.90;;;;;;5049331;28;20013;-72
2022/03/20 00:30:33;;;;;;;33.72;18.52;;;3.30;99.90;;;;;;5051235;28;20079;-73
2022/03/20 00:32:59;;;;;;;31.80;17.88;;;3.30;99.90;;;;;;5041027;28;20033;-73
2022/03/20 00:35:25;;;;;;;35.17;18.55;;;3.30;99.90;;;;;;5044098;28;20103;-72
2022/03/20 00:37:50;;;;;;;39.78;20.55;;;3.30;99.90;;;;;;5046336;28;20033;-73
2022/03/20 00:40:17;;;;;;;34.53;20.15;;;3.30;99.90;;;;;;5047900;28;20371;-72
2022/03/20 00:42:42;;;;;;;36.30;18.95;;;3.40;99.90;;;;;;5047879;28;20028;-72
2022/03/20 00:45:09;;;;;;;34.33;18.90;;;3.30;99.90;;;;;;5049840;28;20406;-73
2022/03/20 00:47:34;;;;;;;38.05;19.95;;;3.40;99.90;;;;;;5044722;28;20029;-71
2022/03/20 00:50:07;;;;;;;35.00;19.75;;;3.40;99.90;;;;;;5047454;28;20052;-71
2022/03/20 00:52:32;;;;;;;32.75;19.40;;;3.50;99.90;;;;;;5048217;28;20059;-71
2022/03/20 00:54:59;;;;;;;33.33;18.45;;;3.50;99.90;;;;;;5042077;28;20489;-71
2022/03/20 00:57:28;;;;;;;38.85;21.13;;;3.50;99.90;;;;;;5045081;28;20036;-71
2022/03/20 00:59:54;;;;;;;37.88;21.13;;;3.50;99.90;;;;;;5045234;28;20025;-72
2022/03/20 01:02:20;;;;;;;33.13;20.17;;;3.40;99.90;;;;;;5043991;28;20584;-72
2022/03/20 01:04:46;;;;;;;36.05;19.73;;;3.40;99.90;;;;;;5047914;28;20037;-73
2022/03/20 01:07:11;;;;;;;36.00;20.90;;;3.40;99.90;;;;;;5046859;28;20037;-73
2022/03/20 01:09:37;;;;;;;37.45;20.17;;;3.40;99.90;;;;;;5046195;28;20048;-73
2022/03/20 01:12:04;;;;;;;36.60;21.15;;;3.40;99.90;;;;;;5047233;28;20021;-73
2022/03/20 01:14:30;;;;;;;40.20;20.70;;;3.40;99.90;;;;;;5050082;28;20040;-73
2022/03/20 01:16:56;;;;;;;39.00;19.77;;;3.40;99.90;;;;;;5052829;28;20021;-73
2022/03/20 01:19:23;;;;;;;38.90;21.25;;;3.40;99.90;;;;;;5084383;23;20028;-80
2022/03/20 01:21:49;;;;;;;50.13;21.02;;;3.40;99.90;;;;;;5066641;28;20052;-80
2022/03/20 01:24:15;;;;;;;35.15;20.85;;;3.40;99.90;;;;;;5062361;28;20110;-80
2022/03/20 01:26:41;;;;;;;34.60;19.80;;;3.40;99.90;;;;;;5045939;28;20437;-80
2022/03/20 01:29:07;;;;;;;39.33;21.50;;;3.40;99.90;;;;;;5065991;28;20525;-81
2022/03/20 01:31:34;;;;;;;37.05;20.77;;;3.40;99.90;;;;;;5063188;28;20500;-81
2022/03/20 01:34:00;;;;;;;39.90;20.88;;;3.40;99.90;;;;;;5065531;28;20017;-80
2022/03/20 01:36:26;;;;;;;40.33;21.00;;;3.40;99.90;;;;;;5061216;28;20586;-80
2022/03/20 01:38:52;;;;;;;35.97;19.00;;;3.40;99.90;;;;;;5059011;28;20024;-80
2022/03/20 01:41:18;;;;;;;36.70;20.60;;;3.40;99.90;;;;;;5061779;28;20141;-80
2022/03/20 01:44:02;;;;;;;39.47;20.33;;;3.40;99.90;;;;;;5061206;28;20059;-80
2022/03/20 01:46:29;;;;;;;36.38;19.58;;;3.40;99.90;;;;;;5057547;28;20174;-80
2022/03/20 01:48:55;;;;;;;37.28;21.58;;;3.30;99.90;;;;;;5064161;28;20137;-80
2022/03/20 01:52:10;;;;;;;42.92;21.80;;;3.30;99.90;;;;;;5062443;28;20028;-79
2022/03/20 01:54:09;;;;;;;37.60;20.60;;;3.20;99.90;;;;;;5059153;28;20028;-80
2022/03/20 01:56:36;;;;;;;34.38;19.88;;;3.10;99.90;;;;;;5062858;28;20028;-80
2022/03/20 01:59:03;;;;;;;38.45;20.73;;;3.10;99.90;;;;;;5062669;28;20721;-80
2022/03/20 02:01:29;;;;;;;38.92;20.58;;;3.10;99.90;;;;;;5064458;28;20036;-80
2022/03/20 02:03:55;;;;;;;46.08;22.67;;;3.00;99.90;;;;;;5061338;28;20033;-80
2022/03/20 02:06:22;;;;;;;38.50;21.63;;;3.00;99.90;;;;;;5060131;28;20081;-80
2022/03/20 02:08:48;;;;;;;39.70;21.13;;;3.00;99.90;;;;;;5060969;28;20029;-80
2022/03/20 02:11:13;;;;;;;43.22;22.38;;;2.90;99.90;;;;;;5061826;28;20036;-80
2022/03/20 02:13:40;;;;;;;35.95;19.88;;;2.90;99.90;;;;;;5062915;28;20358;-80
2022/03/20 02:16:06;;;;;;;42.67;21.88;;;2.90;99.90;;;;;;5062079;28;20310;-80
2022/03/20 02:18:32;;;;;;;42.97;21.77;;;3.00;99.90;;;;;;5063819;28;20055;-80
2022/03/20 02:21:02;;;;;;;39.75;22.35;;;3.00;99.90;;;;;;5062973;28;20017;-80
2022/03/20 02:23:28;;;;;;;38.38;20.25;;;3.00;99.90;;;;;;5061942;28;20028;-80
2022/03/20 02:25:54;;;;;;;38.88;20.88;;;3.10;99.90;;;;;;5060114;28;20032;-80
2022/03/20 02:28:19;;;;;;;39.90;20.67;;;3.10;99.90;;;;;;5059107;28;20512;-78
2022/03/20 02:30:46;;;;;;;37.92;20.70;;;3.10;99.90;;;;;;5058956;28;20631;-79
2022/03/20 02:33:13;;;;;;;37.10;20.25;;;3.20;99.90;;;;;;5062627;28;20100;-79
2022/03/20 02:35:40;;;;;;;43.20;21.85;;;3.20;99.90;;;;;;5061612;28;20060;-79
2022/03/20 02:38:09;;;;;;;38.88;20.90;;;3.30;99.90;;;;;;5062069;28;20020;-79
2022/03/20 02:40:34;;;;;;;38.67;20.65;;;3.30;99.90;;;;;;5061563;28;20028;-79
2022/03/20 02:43:02;;;;;;;36.03;19.95;;;3.30;99.90;;;;;;5064261;28;20033;-80
2022/03/20 02:45:29;;;;;;;37.03;20.73;;;3.40;99.90;;;;;;5061472;28;20109;-81
2022/03/20 02:47:57;;;;;;;35.55;20.42;;;3.40;99.90;;;;;;5062377;28;20147;-80
2022/03/20 02:50:29;;;;;;;39.42;21.58;;;3.40;99.90;;;;;;5055247;28;20052;-80
2022/03/20 02:53:02;;;;;;;43.05;21.77;;;3.40;99.90;;;;;;5065788;28;20499;-80
2022/03/20 02:55:36;;;;;;;41.20;21.40;;;3.40;99.90;;;;;;5067816;28;20370;-80
2022/03/20 02:58:10;;;;;;;36.63;20.38;;;3.30;99.90;;;;;;5066239;28;20116;-80
2022/03/20 03:00:37;;;;;;;35.67;19.38;;;3.30;99.90;;;;;;5065485;28;20104;-80
2022/03/20 03:03:04;;;;;;;37.83;20.65;;;3.20;99.90;;;;;;5066412;28;20021;-80
2022/03/20 03:05:31;;;;;;;39.88;20.70;;;3.10;99.90;;;;;;5066460;28;20036;-80
2022/03/20 03:11:01;;;;;;;43.88;20.25;;;3.00;99.90;;;;;;5067062;28;20557;-80
2022/03/20 03:13:29;;;;;;;35.65;18.95;;;3.00;99.90;;;;;;5066243;28;20033;-81
2022/03/20 03:16:00;;;;;;;40.97;21.08;;;2.90;99.90;;;;;;5065569;28;20507;-80
2022/03/20 03:18:26;;;;;;;38.55;20.65;;;2.90;99.90;;;;;;5063527;28;20033;-81
2022/03/20 03:20:53;;;;;;;35.55;19.58;;;2.90;99.90;;;;;;5064469;28;20067;-81
2022/03/20 03:23:21;;;;;;;40.63;20.48;;;2.90;99.90;;;;;;5064413;28;20033;-81
2022/03/20 03:25:47;;;;;;;38.60;21.60;;;2.90;99.90;;;;;;5066872;28;20025;-81
2022/03/20 03:28:13;;;;;;;39.10;21.98;;;2.90;99.90;;;;;;5066457;28;20466;-81
2022/03/20 03:30:41;;;;;;;39.97;21.50;;;2.90;99.90;;;;;;5069216;28;20027;-81
2022/03/20 03:33:07;;;;;;;37.00;20.15;;;2.90;99.90;;;;;;5065173;28;20620;-81
2022/03/20 03:38:17;;;;;;;;;;;2.90;99.90;;;;;;5064974;28;20536;-81
2022/03/20 03:40:46;;;;;;;39.85;21.42;;;2.90;99.90;;;;;;5067973;28;19908;-81
2022/03/20 03:43:14;;;;;;;38.85;20.92;;;2.90;99.90;;;;;;5068792;28;20461;-81
2022/03/20 03:45:40;;;;;;;37.40;20.02;;;2.90;99.90;;;;;;5060397;28;20032;-81
2022/03/20 03:48:11;;;;;;;41.38;21.83;;;2.90;99.90;;;;;;5061136;28;20025;-81
2022/03/20 03:50:39;;;;;;;40.42;20.60;;;2.90;99.90;;;;;;5051750;28;20086;-81
2022/03/20 03:53:05;;;;;;;45.50;21.17;;;3.00;99.90;;;;;;5058212;28;20029;-81
2022/03/20 03:55:32;;;;;;;43.35;21.58;;;3.00;99.90;;;;;;5060798;28;20396;-81
2022/03/20 03:57:59;;;;;;;36.83;20.95;;;3.00;99.90;;;;;;5063049;28;20469;-81
2022/03/20 04:00:26;;;;;;;37.03;20.23;;;3.10;99.90;;;;;;5064961;28;20059;-80
2022/03/20 04:02:52;;;;;;;37.35;19.95;;;3.10;99.90;;;;;;5066465;28;20021;-81
2022/03/20 04:05:18;;;;;;;35.40;19.80;;;3.20;99.90;;;;;;5068697;28;20035;-81
2022/03/20 04:07:45;;;;;;;36.90;20.25;;;3.30;99.90;;;;;;5061392;28;20024;-81
2022/03/20 04:10:11;;;;;;;41.08;22.77;;;3.30;99.90;;;;;;5061215;28;20477;-81
2022/03/20 04:12:40;;;;;;;38.95;21.42;;;3.30;99.90;;;;;;5057764;28;20029;-81
2022/03/20 04:15:07;;;;;;;35.15;20.70;;;3.30;99.90;;;;;;5051689;28;20470;-81
2022/03/20 04:17:33;;;;;;;36.13;20.42;;;3.30;99.90;;;;;;5062230;28;20079;-81
2022/03/20 04:20:00;;;;;;;33.65;19.85;;;3.40;99.90;;;;;;5062813;28;20021;-81
2022/03/20 04:22:26;;;;;;;37.53;20.58;;;3.50;99.90;;;;;;5062062;28;20024;-82
2022/03/20 04:24:52;;;;;;;36.42;19.90;;;3.50;99.90;;;;;;5064149;28;20029;-81
2022/03/20 04:27:18;;;;;;;35.72;20.80;;;3.50;99.90;;;;;;5062031;28;20109;-81
2022/03/20 04:29:45;;;;;;;41.20;21.42;;;3.50;99.90;;;;;;5058781;28;20469;-82
2022/03/20 04:32:11;;;;;;;34.05;19.77;;;3.50;99.90;;;;;;5064209;28;20029;-81
2022/03/20 04:34:41;;;;;;;35.97;19.60;;;3.50;99.90;;;;;;5067645;28;20020;-81
2022/03/20 04:37:08;;;;;;;38.58;20.55;;;3.50;99.90;;;;;;5063307;28;20028;-81
2022/03/20 04:39:34;;;;;;;35.47;19.98;;;3.60;99.90;;;;;;5061847;28;20020;-81
2022/03/20 04:42:01;;;;;;;37.83;20.58;;;3.60;99.90;;;;;;5062883;28;20039;-81
2022/03/20 04:44:27;;;;;;;34.47;19.45;;;3.70;99.90;;;;;;5065501;28;20111;-81
2022/03/20 04:46:56;;;;;;;37.25;19.83;;;3.60;99.90;;;;;;5061966;28;20112;-81
2022/03/20 05:00:18;;;;;;;36.13;20.23;;;3.70;99.90;;;;;;5061704;28;19918;-81
2022/03/20 05:02:45;;;;;;;39.08;20.90;;;3.70;99.90;;;;;;5067072;28;20869;-81
2022/03/20 05:05:11;;;;;;;39.25;21.38;;;3.70;99.90;;;;;;5059959;28;20028;-82
2022/03/20 05:07:37;;;;;;;34.63;19.45;;;3.60;99.90;;;;;;5056374;28;20028;-81
2022/03/20 05:15:33;;;;;;;38.88;20.75;;;3.80;99.90;;;;;;5066016;28;20036;-82
2022/03/20 05:17:59;;;;;;;39.03;20.73;;;3.90;99.90;;;;;;5059850;28;20021;-82
2022/03/20 05:20:26;;;;;;;40.00;21.10;;;4.00;99.90;;;;;;5061448;28;20507;-82
2022/03/20 05:22:52;;;;;;;38.47;20.58;;;4.10;99.90;;;;;;5065398;28;20027;-82
2022/03/20 05:25:18;;;;;;;40.38;21.70;;;4.10;99.90;;;;;;5062896;28;20035;-82
2022/03/20 05:27:44;;;;;;;36.67;20.45;;;4.30;99.90;;;;;;5061912;28;20408;-82
2022/03/20 05:30:10;;;;;;;39.80;20.80;;;4.30;99.90;;;;;;5065761;28;20036;-82
2022/03/20 05:32:38;;;;;;;37.97;20.63;;;4.30;99.90;;;;;;5061688;28;20020;-83
2022/03/20 05:35:05;;;;;;;36.63;20.85;;;4.30;99.90;;;;;;5065842;28;20028;-82
2022/03/20 05:37:31;;;;;;;38.28;20.58;;;4.30;99.90;;;;;;5065355;28;20029;-82
2022/03/20 05:39:58;;;;;;;37.58;19.67;;;4.20;99.90;;;;;;5041530;23;20038;-68
2022/03/20 05:42:26;;;;;;;38.85;21.50;;;4.00;99.90;;;;;;5021533;28;20112;-65
2022/03/20 05:45:02;;;;;;;33.70;20.05;;;4.00;99.90;;;;;;5026085;28;20036;-65
2022/03/20 05:47:31;;;;;;;37.40;21.15;;;3.90;99.90;;;;;;5024557;28;20034;-66
2022/03/20 05:50:01;;;;;;;40.90;23.70;;;3.80;99.90;;;;;;5022572;28;20132;-69
2022/03/20 05:52:31;;;;;;;37.72;20.60;;;3.90;99.90;;;;;;5022257;28;20029;-66
2022/03/20 05:55:01;;;;;;;41.80;23.15;;;3.90;99.90;;;;;;5020131;28;20029;-66
2022/03/20 06:00:24;;;;;;;45.75;23.90;;;3.90;99.90;;;;;;5022884;28;20104;-65
2022/03/20 06:02:50;;;;;;;41.88;21.40;;;3.90;99.90;;;;;;5016590;28;20105;-67
2022/03/20 06:05:20;;;;;;;38.20;21.02;;;3.90;99.90;;;;;;5023901;28;20172;-69
2022/03/20 06:07:47;;;;;;;39.47;21.70;;;3.90;99.90;;;;;;5022963;28;21511;-66
2022/03/20 06:10:20;;;;;;;41.95;21.45;;;4.00;99.90;;;;;;5021774;28;20988;-64
2022/03/20 06:12:46;;;;;;;39.80;21.20;;;3.90;99.90;;;;;;5022201;28;21372;-66
2022/03/20 06:15:18;;;;;;;39.15;21.52;;;3.90;99.90;;;;;;5026342;28;20523;-65
2022/03/20 06:17:45;;;;;;;33.08;19.50;;;3.90;99.90;;;;;;5023515;28;20018;-66
2022/03/20 06:20:12;;;;;;;40.63;21.85;;;4.00;99.90;;;;;;5021878;28;20036;-66
2022/03/20 06:22:37;;;;;;;40.17;22.33;;;4.00;99.90;;;;;;5023736;28;20091;-65
2022/03/20 06:25:09;;;;;;;36.90;21.23;;;4.00;99.90;;;;;;5027133;28;20053;-68
2022/03/20 06:27:46;;;;;;;39.88;22.55;;;4.10;99.90;;;;;;5026358;28;20098;-66
2022/03/20 06:30:13;;;;;;;40.17;21.77;;;4.10;99.90;;;;;;5033628;28;20021;-65
2022/03/20 06:32:43;;;;;;;41.80;22.50;;;4.20;99.90;;;;;;5025051;28;20183;-68
2022/03/20 06:35:10;;;;;;;44.17;22.85;;;4.30;99.90;;;;;;5024874;28;20033;-69
2022/03/20 06:37:42;;;;;;;36.97;20.60;;;4.30;99.90;;;;;;5027096;28;20030;-68
2022/03/20 06:40:13;;;;;;;39.28;22.50;;;4.50;99.90;;;;;;5027681;28;20025;-68
2022/03/20 06:42:42;;;;;;;40.78;21.98;;;4.60;99.90;;;;;;5022099;28;20034;-68
2022/03/20 06:45:11;;;;;;;40.35;20.75;;;4.70;99.90;;;;;;5028629;28;20048;-70
2022/03/20 06:47:38;;;;;;;42.15;22.45;;;4.90;99.90;;;;;;5022795;28;20513;-66
2022/03/20 06:50:05;;;;;;;42.03;22.40;;;5.00;99.90;;;;;;5028544;28;20052;-68
2022/03/20 06:52:31;;;;;;;44.72;22.42;;;5.10;99.90;;;;;;5024652;28;20034;-67
2022/03/20 06:54:59;;;;;;;35.75;20.73;;;5.10;99.90;;;;;;5024203;28;20022;-68
2022/03/20 06:57:30;;;;;;;44.63;22.05;;;5.20;99.90;;;;;;5028073;28;20037;-68
2022/03/20 06:59:57;;;;;;;42.75;22.10;;;5.20;99.90;;;;;;5027070;28;20058;-68
2022/03/20 07:02:23;;;;;;;42.17;21.40;;;5.30;99.90;;;;;;5024202;28;20076;-66
2022/03/20 07:04:53;;;;;;;39.53;21.88;;;5.40;99.90;;;;;;5026686;28;20108;-68
2022/03/20 07:07:25;;;;;;;41.25;22.23;;;5.50;99.90;;;;;;5023553;28;20030;-68
2022/03/20 07:09:51;;;;;;;41.17;21.80;;;5.60;99.90;;;;;;5021914;28;22984;-67
2022/03/20 07:12:19;;;;;;;40.70;21.08;;;5.70;99.90;;;;;;5022626;28;20022;-68
2022/03/20 07:14:46;;;;;;;39.00;20.65;;;5.90;99.90;;;;;;5024371;28;20033;-66
2022/03/20 07:17:19;;;;;;;38.80;21.05;;;5.90;99.60;;;;;;5025225;28;20112;-67
2022/03/20 07:19:45;;;;;;;34.77;20.60;;;6.10;99.10;;;;;;5019913;28;20101;-67
2022/03/20 07:22:13;;;;;;;40.55;21.90;;;6.10;98.50;;;;;;5025790;28;20053;-67
2022/03/20 07:24:41;;;;;;;41.38;22.50;;;6.20;98.60;;;;;;5025304;28;20037;-68
2022/03/20 07:29:56;;;;;;;34.65;19.98;;;6.30;99.60;;;;;;5021676;28;20052;-70
2022/03/20 07:32:21;;;;;;;37.72;21.35;;;6.40;99.90;;;;;;5022552;28;20385;-72
2022/03/20 07:34:47;;;;;;;34.25;20.15;;;6.40;99.90;;;;;;5025509;28;20117;-68
2022/03/20 07:37:18;;;;;;;37.80;21.38;;;6.40;99.90;;;;;;5022860;28;20033;-68
2022/03/20 07:39:53;;;;;;;44.78;27.08;;;6.40;99.90;;;;;;5026422;28;20025;-68
2022/03/20 07:42:19;;;;;;;39.08;21.50;;;6.50;99.90;;;;;;5021776;28;20555;-67
2022/03/20 07:44:48;;;;;;;39.47;21.77;;;6.70;97.90;;;;;;5024272;28;20053;-67
2022/03/20 07:47:21;;;;;;;41.83;21.58;;;6.90;96.80;;;;;;5024340;28;20045;-69
2022/03/20 07:49:48;;;;;;;36.80;21.20;;;7.00;96.20;;;;;;5025227;28;20567;-66
2022/03/20 07:52:14;;;;;;;35.65;20.52;;;7.20;95.60;;;;;;5020999;28;20040;-69
2022/03/20 07:54:40;;;;;;;35.88;20.90;;;7.30;94.70;;;;;;5020521;28;20033;-70
2022/03/20 07:57:07;;;;;;;35.97;20.55;;;7.40;94.00;;;;;;5018029;28;20025;-70
2022/03/20 07:59:34;;;;;;;35.55;20.40;;;7.60;93.60;;;;;;5024208;28;20029;-67
2022/03/20 08:02:00;;;;;;;31.88;18.10;;;7.90;93.00;;;;;;5020856;28;20071;-68
2022/03/20 08:04:25;;;;;;;36.47;18.77;;;8.10;92.40;;;;;;5023828;28;20479;-68
2022/03/20 08:06:51;;;;;;;35.15;20.42;;;8.20;91.00;;;;;;5027002;28;20049;-69
2022/03/20 08:09:17;;;;;;;37.50;21.42;;;8.40;90.50;;;;;;5014588;28;20037;-69
2022/03/20 08:11:43;;;;;;;34.42;20.45;;;8.60;90.40;;;;;;5021195;28;20033;-69
2022/03/20 08:14:09;;;;;;;33.42;19.55;;;8.70;89.90;;;;;;5017888;28;20417;-69
2022/03/20 08:16:38;;;;;;;35.65;20.27;;;8.90;88.60;;;;;;5017088;28;20087;-69
2022/03/20 08:19:05;;;;;;;35.63;20.50;;;8.90;88.40;;;;;;5017658;28;21418;-68
2022/03/20 08:21:33;;;;;;;35.40;21.38;;;9.00;88.00;;;;;;5023331;28;20044;-69
2022/03/20 08:24:02;;;;;;;37.13;21.10;;;9.10;90.50;;;;;;5022721;28;20033;-67
2022/03/20 08:26:30;;;;;;;34.33;20.98;;;9.00;92.30;;;;;;5012554;28;20034;-70
2022/03/20 08:28:56;;;;;;;36.72;21.00;;;8.90;93.40;;;;;;5020465;28;22162;-69
2022/03/20 08:31:22;;;;;;;38.22;20.65;;;8.80;94.60;;;;;;5020629;28;20053;-70
2022/03/20 08:33:47;;;;;;;32.85;19.88;;;8.80;94.50;;;;;;5009202;28;20041;-67
2022/03/20 08:36:14;;;;;;;36.53;21.13;;;8.80;94.70;;;;;;5026857;28;20068;-69
2022/03/20 08:38:40;;;;;;;33.78;21.23;;;8.70;94.40;;;;;;5019928;28;20116;-67
2022/03/20 08:41:06;;;;;;;34.33;21.00;;;8.70;95.00;;;;;;5019344;28;20056;-67
2022/03/20 08:43:32;;;;;;;39.58;22.48;;;8.70;94.90;;;;;;5018815;28;20071;-68
2022/03/20 08:45:57;;;;;;;36.33;21.55;;;8.70;94.90;;;;;;5021188;28;20022;-71
2022/03/20 08:48:23;;;;;;;34.75;21.30;;;8.70;94.80;;;;;;5018645;28;20516;-70
2022/03/20 08:50:49;;;;;;;36.63;21.25;;;8.70;95.00;;;;;;5013700;28;20117;-67
2022/03/20 08:53:19;;;;;;;36.40;21.73;;;8.70;95.00;;;;;;5024114;28;20036;-67
2022/03/20 08:55:48;;;;;;;36.53;21.00;;;8.70;95.00;;;;;;5022757;28;20029;-67
2022/03/20 08:58:15;;;;;;;32.67;20.40;;;8.70;94.90;;;;;;5023058;28;20026;-66
2022/03/20 09:00:41;;;;;;;37.30;21.42;;;8.70;94.70;;;;;;5024925;28;20030;-66
2022/03/20 09:03:07;;;;;;;35.22;21.27;;;8.80;94.70;;;;;;5023642;28;20059;-67
2022/03/20 09:05:33;;;;;;;34.75;20.17;;;8.80;94.70;;;;;;5020206;28;20054;-65
2022/03/20 09:07:59;;;;;;;36.95;20.73;;;8.80;94.40;;;;;;5019599;28;20112;-67
2022/03/20 09:10:26;;;;;;;31.35;19.27;;;8.80;94.60;;;;;;5020449;28;20038;-67
2022/03/20 09:12:57;;;;;;;33.92;19.63;;;8.90;94.70;;;;;;5022959;28;20359;-65
2022/03/20 09:15:24;;;;;;;38.67;19.50;;;8.90;94.60;;;;;;5020676;28;20026;-67
2022/03/20 09:20:37;;;;;;;33.75;19.45;;;9.00;94.10;;;;;;5019662;28;20024;-67
2022/03/20 09:23:04;;;;;;;33.33;20.40;;;9.10;94.00;;;;;;5018537;28;20036;-66
2022/03/20 09:25:32;;;;;;;33.22;20.67;;;9.20;94.00;;;;;;5016945;28;20063;-67
2022/03/20 09:27:58;;;;;;;32.42;20.35;;;9.30;94.20;;;;;;5023308;28;20079;-66
2022/03/20 09:30:23;;;;;;;33.13;19.95;;;9.30;94.30;;;;;;5022617;28;20039;-65
2022/03/20 09:32:49;;;;;;;33.45;20.67;;;9.40;94.40;;;;;;5020434;28;20021;-67
2022/03/20 09:35:16;;;;;;;34.05;21.33;;;9.30;94.50;;;;;;5022793;28;20075;-67
2022/03/20 09:37:42;;;;;;;36.67;20.98;;;9.40;94.40;;;;;;5022969;28;20525;-66
2022/03/20 09:40:09;;;;;;;31.20;20.20;;;9.40;94.10;;;;;;5020854;28;20116;-64
2022/03/20 09:42:37;;;;;;;36.95;21.33;;;9.50;94.20;;;;;;5014551;28;20120;-62
2022/03/20 09:45:04;;;;;;;36.13;20.92;;;9.60;93.80;;;;;;5014760;28;20035;-65
2022/03/20 09:47:30;;;;;;;33.92;20.63;;;9.70;93.10;;;;;;5019481;28;20166;-68
2022/03/20 09:49:56;;;;;;;34.67;20.33;;;9.60;92.90;;;;;;5024283;28;20033;-67
2022/03/20 09:52:23;;;;;;;32.72;19.58;;;9.80;92.70;;;;;;5017646;28;20114;-67
2022/03/20 09:54:49;;;;;;;32.70;18.92;;;9.90;92.10;;;;;;5023087;28;20045;-67
2022/03/20 09:57:15;;;;;;;29.20;18.73;;;10.00;91.40;;;;;;5023223;28;20034;-68
2022/03/20 09:59:41;;;;;;;30.60;18.42;;;10.10;91.10;;;;;;5020797;28;20021;-66
2022/03/20 10:02:09;;;;;;;29.45;18.08;;;10.20;91.00;;;;;;5025864;28;20092;-68
2022/03/20 10:04:57;;;;;;;27.75;17.35;;;10.30;90.30;;;;;;5024288;28;20021;-67
2022/03/20 10:07:24;;;;;;;41.00;19.75;;;10.50;89.00;;;;;;5020587;28;20075;-67
2022/03/20 10:10:14;;;;;;;28.42;17.77;;;10.60;88.70;;;;;;5017764;28;20459;-67
2022/03/20 10:12:44;;;;;;;29.23;17.88;;;10.80;86.70;;;;;;5021319;28;20026;-68
2022/03/20 10:15:40;;;;;;;29.55;17.88;;;11.00;86.30;;;;;;5023540;28;20413;-67
2022/03/20 10:18:15;;;;;;;27.10;17.35;;;11.20;85.70;;;;;;5020701;28;20366;-68
2022/03/20 10:20:46;;;;;;;30.20;18.00;;;11.40;84.10;;;;;;5014916;28;20083;-67
2022/03/20 10:23:36;;;;;;;31.00;17.67;;;11.60;82.60;;;;;;5021148;28;20034;-68
2022/03/20 10:26:09;;;;;;;30.90;17.70;;;11.90;80.90;;;;;;5021841;28;20026;-66
2022/03/20 10:28:39;;;;;;;30.75;17.83;;;12.10;79.40;;;;;;5020602;28;20107;-68
2022/03/20 10:31:07;;;;;;;31.20;17.42;;;12.30;78.70;;;;;;5024680;28;20033;-68
2022/03/20 10:33:40;;;;;;;28.23;17.73;;;12.60;77.40;;;;;;5024558;28;20650;-68
2022/03/20 10:36:14;;;;;;;29.92;18.13;;;12.70;76.60;;;;;;5023193;28;20045;-67
2022/03/20 10:38:43;;;;;;;27.83;17.15;;;12.80;75.60;;;;;;5019723;28;20453;-67
2022/03/20 10:41:20;;;;;;;30.10;17.10;;;13.00;75.50;;;;;;5018639;28;20033;-66
2022/03/20 10:43:46;;;;;;;29.40;18.33;;;13.10;74.10;;;;;;5022375;28;21733;-64
2022/03/20 10:46:41;;;;;;;30.83;18.15;;;13.20;73.40;;;;;;5022019;28;20101;-66
2022/03/20 10:49:09;;;;;;;27.95;15.88;;;13.30;72.80;;;;;;5018888;28;20033;-66
2022/03/20 10:51:40;;;;;;;28.23;16.45;;;13.20;71.70;;;;;;5026276;28;20025;-66
2022/03/20 10:54:16;;;;;;;26.35;16.92;;;13.20;71.70;;;;;;5023506;28;20030;-65
2022/03/20 10:57:02;;;;;;;28.77;16.50;;;13.10;70.80;;;;;;5015950;28;20037;-66
2022/03/20 10:59:32;;;;;;;25.33;14.77;;;13.00;72.00;;;;;;5023918;28;20057;-68
2022/03/20 11:01:59;;;;;;;25.90;14.68;;;13.10;68.40;;;;;;5018045;28;20021;-65
2022/03/20 11:04:25;;;;;;;24.08;13.98;;;13.10;66.70;;;;;;5018171;28;20071;-67
2022/03/20 11:06:59;;;;;;;24.63;13.98;;;13.20;65.80;;;;;;5020624;28;20084;-68
2022/03/20 11:09:26;;;;;;;23.13;14.43;;;13.20;66.10;;;;;;5021175;28;20037;-69
2022/03/20 11:11:54;;;;;;;22.90;13.68;;;13.20;65.70;;;;;;5023138;28;20120;-69
2022/03/20 11:14:26;;;;;;;30.70;15.05;;;13.20;66.20;;;;;;5024507;28;20025;-70
2022/03/20 11:16:54;;;;;;;23.17;14.40;;;13.30;64.60;;;;;;5028140;28;20369;-70
2022/03/20 11:19:23;;;;;;;25.67;15.15;;;13.20;65.30;;;;;;5024412;28;20025;-70
2022/03/20 11:21:53;;;;;;;25.70;15.32;;;13.10;64.50;;;;;;5026820;28;20112;-67
2022/03/20 11:24:19;;;;;;;21.42;13.57;;;13.20;63.00;;;;;;5023988;28;20414;-68
2022/03/20 11:26:48;;;;;;;23.58;14.90;;;13.10;62.80;;;;;;5027539;28;20026;-67
2022/03/20 11:29:15;;;;;;;22.83;14.00;;;13.10;62.70;;;;;;5026564;28;20041;-65
2022/03/20 11:31:42;;;;;;;24.83;12.45;;;13.10;62.40;;;;;;5026919;28;20053;-66
2022/03/20 11:34:09;;;;;;;24.58;14.07;;;13.10;62.20;;;;;;5023491;28;20029;-68
2022/03/20 11:37:00;;;;;;;21.80;13.75;;;13.20;61.80;;;;;;5020170;28;20050;-68
2022/03/20 11:39:26;;;;;;;24.23;13.13;;;13.30;61.70;;;;;;5022036;28;20022;-69
2022/03/20 11:42:27;;;;;;;24.38;14.30;;;13.30;61.50;;;;;;5021424;28;20125;-67
2022/03/20 11:45:00;;;;;;;22.38;13.52;;;13.40;60.10;;;;;;5023525;28;20026;-70
2022/03/20 11:47:30;;;;;;;23.08;13.43;;;13.40;60.20;;;;;;5025703;28;20041;-68
2022/03/20 11:50:39;;;;;;;27.50;14.02;;;13.40;59.80;;;;;;5021869;28;20109;-71
2022/03/20 11:53:05;;;;;;;24.70;14.38;;;13.50;59.30;;;;;;5020482;28;20095;-70
2022/03/20 11:55:37;;;;;;;21.17;13.10;;;13.60;58.90;;;;;;5022835;28;20033;-70
2022/03/20 11:58:17;;;;;;;25.17;13.48;;;13.50;59.10;;;;;;5020077;28;20029;-68
2022/03/20 12:00:44;;;;;;;21.08;12.80;;;13.50;58.80;;;;;;5023191;28;20104;-69
2022/03/20 12:03:33;;;;;;;20.25;12.98;;;13.50;58.80;;;;;;5019163;28;20030;-68
2022/03/20 12:06:46;;;;;;;21.67;13.75;;;13.50;58.00;;;;;;5021766;28;20060;-69
2022/03/20 12:09:20;;;;;;;24.08;13.75;;;13.50;58.40;;;;;;5026452;28;20052;-69
2022/03/20 12:12:04;;;;;;;22.08;13.40;;;13.60;58.00;;;;;;5026683;28;20044;-67
2022/03/20 12:14:30;;;;;;;;;;;13.70;58.00;;;;;;5026569;28;20064;-70
2022/03/20 12:16:58;;;;;;;23.80;12.80;;;13.70;57.20;;;;;;5026213;28;20362;-68
2022/03/20 12:19:39;;;;;;;23.27;13.20;;;13.80;54.90;;;;;;5026035;28;20026;-69
2022/03/20 12:22:31;;;;;;;22.65;13.07;;;13.70;55.00;;;;;;5022993;28;20478;-69
2022/03/20 12:25:00;;;;;;;18.80;12.75;;;13.90;54.10;;;;;;5023781;28;20637;-69
2022/03/20 12:27:25;;;;;;;22.73;13.25;;;14.00;54.00;;;;;;5020697;28;20072;-67
2022/03/20 12:29:57;;;;;;;21.25;12.60;;;14.00;54.90;;;;;;5025058;28;20021;-69
2022/03/20 12:32:24;;;;;;;26.92;14.15;;;14.00;53.90;;;;;;5019179;28;20034;-69
2022/03/20 12:35:02;;;;;;;21.85;12.95;;;14.10;53.90;;;;;;5026534;28;20040;-71
2022/03/20 12:37:28;;;;;;;26.17;14.30;;;14.00;54.30;;;;;;5027016;28;20022;-70
2022/03/20 12:40:15;;;;;;;23.00;13.43;;;14.10;53.50;;;;;;5025645;28;20120;-69
2022/03/20 12:43:10;;;;;;;21.35;12.48;;;14.20;52.70;;;;;;5020695;28;20034;-69
2022/03/20 12:45:44;;;;;;;22.50;13.95;;;14.30;53.10;;;;;;5022615;28;20022;-70
2022/03/20 12:48:16;;;;;;;26.58;14.02;;;14.20;53.30;;;;;;5019243;28;20022;-70
2022/03/20 12:50:47;;;;;;;22.90;13.93;;;14.30;53.20;;;;;;5021533;28;20026;-70
2022/03/20 12:53:18;;;;;;;24.40;14.15;;;14.40;52.90;;;;;;5025413;28;20040;-69
2022/03/20 12:55:50;;;;;;;23.05;13.18;;;14.40;53.20;;;;;;5025741;28;20041;-69
2022/03/20 12:58:18;;;;;;;25.55;13.90;;;14.50;52.90;;;;;;5026182;28;20032;-69
2022/03/20 13:00:44;;;;;;;26.02;14.50;;;14.60;52.50;;;;;;5022033;28;20049;-69
2022/03/20 13:03:19;;;;;;;24.05;12.45;;;14.60;52.80;;;;;;5022120;28;20496;-68
2022/03/20 13:05:45;;;;;;;24.60;14.10;;;14.70;52.50;;;;;;5024763;28;20064;-69
2022/03/20 13:08:18;;;;;;;23.60;13.20;;;14.70;52.00;;;;;;5027276;28;20061;-69
2022/03/20 13:10:44;;;;;;;27.92;15.13;;;14.80;51.60;;;;;;5023527;28;20075;-69
2022/03/20 13:13:16;;;;;;;26.10;13.90;;;14.90;51.40;;;;;;5025743;28;20033;-68
2022/03/20 13:15:42;;;;;;;28.42;14.77;;;14.80;51.50;;;;;;5023344;28;20026;-67